createdAt,value
2022-09-13T00:00:44.268Z,4.70
2022-09-13T00:03:19.240Z,2.75
2022-09-13T00:05:54.967Z,3.15
2022-09-13T00:08:22.889Z,2.45
2022-09-13T00:10:56.958Z,3.55
2022-09-13T00:13:24.164Z,2.22
2022-09-13T00:15:57.908Z,4.78
2022-09-13T00:18:25.493Z,2.90
2022-09-13T00:20:58.929Z,2.40
2022-09-13T00:23:32.915Z,3.30
2022-09-13T00:26:20.285Z,5.38
2022-09-13T00:28:54.378Z,3.13
2022-09-13T00:31:30.989Z,3.35
2022-09-13T00:34:01.553Z,2.08
2022-09-13T00:36:37.065Z,3.42
2022-09-13T00:39:05.493Z,3.55
2022-09-13T00:41:38.980Z,3.17
2022-09-13T00:44:32.868Z,3.00
2022-09-13T00:47:07.077Z,2.90
2022-09-13T00:49:40.157Z,3.37
2022-09-13T00:52:26.028Z,3.58
2022-09-13T00:55:13.113Z,2.15
2022-09-13T00:57:48.909Z,2.92
2022-09-13T01:00:20.327Z,4.03
2022-09-13T01:03:03.165Z,3.88
2022-09-13T01:05:35.538Z,2.47
2022-09-13T01:08:10.140Z,2.25
2022-09-13T01:10:40.552Z,3.15
2022-09-13T01:13:39.018Z,3.20
2022-09-13T01:16:06.669Z,2.97
2022-09-13T01:18:40.871Z,2.88
2022-09-13T01:21:55.603Z,3.35
2022-09-13T01:24:50.847Z,2.67
2022-09-13T01:27:49.160Z,3.53
2022-09-13T01:30:36.008Z,3.10
2022-09-13T01:33:06.431Z,3.80
2022-09-13T01:35:56.864Z,3.40
2022-09-13T01:38:51.229Z,2.47
2022-09-13T01:41:44.002Z,2.92
2022-09-13T01:44:40.204Z,2.60
2022-09-13T01:47:29.937Z,3.30
2022-09-13T01:50:23.933Z,3.72
2022-09-13T01:53:05.083Z,2.88
2022-09-13T01:55:46.892Z,3.85
2022-09-13T01:58:53.793Z,3.00
2022-09-13T02:01:40.972Z,5.10
2022-09-13T02:04:13.995Z,4.57
2022-09-13T02:06:59.966Z,6.53
2022-09-13T02:09:31.711Z,4.35
2022-09-13T02:12:23.036Z,3.05
2022-09-13T02:15:41.861Z,4.18
2022-09-13T02:18:34.927Z,3.38
2022-09-13T02:21:33.981Z,3.95
2022-09-13T02:24:11.317Z,3.00
2022-09-13T02:26:47.042Z,3.58
2022-09-13T02:29:27.422Z,4.03
2022-09-13T02:32:21.888Z,4.00
2022-09-13T02:34:58.456Z,3.08
2022-09-13T02:37:36.033Z,3.65
2022-09-13T02:40:13.248Z,3.72
2022-09-13T02:42:56.044Z,2.33
2022-09-13T02:45:37.147Z,3.00
2022-09-13T02:48:24.979Z,2.65
2022-09-13T02:51:23.191Z,2.28
2022-09-13T02:53:59.932Z,3.88
2022-09-13T02:56:45.107Z,2.22
2022-09-13T02:59:31.155Z,2.55
2022-09-13T03:02:09.045Z,2.40
2022-09-13T03:04:42.898Z,2.22
2022-09-13T03:07:12.929Z,4.50
2022-09-13T03:09:56.920Z,2.22
2022-09-13T03:12:41.470Z,2.42
2022-09-13T03:15:26.001Z,3.35
2022-09-13T03:18:33.860Z,3.23
2022-09-13T03:21:25.939Z,3.03
2022-09-13T03:24:26.954Z,2.33
2022-09-13T03:27:18.872Z,3.38
2022-09-13T03:30:06.898Z,2.65
2022-09-13T03:32:42.873Z,3.63
2022-09-13T03:35:31.978Z,2.83
2022-09-13T03:38:20.584Z,1.65
2022-09-13T03:41:00.003Z,2.35
2022-09-13T03:44:03.893Z,4.53
2022-09-13T03:46:53.948Z,3.10
2022-09-13T03:49:23.581Z,2.85
2022-09-13T03:52:05.958Z,6.68
2022-09-13T03:54:50.973Z,2.13
2022-09-13T03:57:30.058Z,2.97
2022-09-13T03:59:58.267Z,2.30
2022-09-13T04:02:34.207Z,1.75
2022-09-13T04:05:02.005Z,3.13
2022-09-13T04:07:35.986Z,2.80
2022-09-13T04:10:03.483Z,3.33
2022-09-13T04:12:39.497Z,3.70
2022-09-13T04:15:08.892Z,5.88
2022-09-13T04:17:44.163Z,3.17
2022-09-13T04:20:11.858Z,3.88
2022-09-13T04:22:45.958Z,3.63
2022-09-13T04:25:13.283Z,2.90
2022-09-13T04:27:46.949Z,4.03
2022-09-13T04:30:14.219Z,3.50
2022-09-13T04:32:50.904Z,3.92
2022-09-13T04:35:25.964Z,3.67
2022-09-13T04:40:30.918Z,3.67
2022-09-13T04:45:32.016Z,4.05
2022-09-13T04:48:05.938Z,4.13
2022-09-13T04:50:39.913Z,4.97
2022-09-13T04:53:20.984Z,3.78
2022-09-13T04:55:55.009Z,3.90
2022-09-13T04:58:23.088Z,5.22
2022-09-13T05:00:57.989Z,2.85
2022-09-13T05:03:25.188Z,4.35
2022-09-13T05:05:52.320Z,3.08
2022-09-13T05:08:26.059Z,2.75
2022-09-13T05:10:53.284Z,4.05
2022-09-13T05:13:28.964Z,2.72
2022-09-13T05:16:01.427Z,2.92
2022-09-13T05:18:45.120Z,5.40
2022-09-13T05:21:19.195Z,2.65
2022-09-13T05:23:49.433Z,3.92
2022-09-13T05:26:23.904Z,3.78
2022-09-13T05:28:51.363Z,2.22
2022-09-13T05:31:28.075Z,3.05
2022-09-13T05:34:05.771Z,2.58
2022-09-13T05:36:40.289Z,2.60
2022-09-13T05:42:02.207Z,4.10
2022-09-13T05:44:29.617Z,3.38
2022-09-13T05:47:02.966Z,4.65
2022-09-13T05:49:30.146Z,4.00
2022-09-13T05:52:10.958Z,4.22
2022-09-13T05:54:44.666Z,3.53
2022-09-13T05:57:18.965Z,3.17
2022-09-13T05:59:48.493Z,2.47
2022-09-13T06:02:22.032Z,2.70
2022-09-13T06:04:51.153Z,3.67
2022-09-13T06:07:25.087Z,3.50
2022-09-13T06:09:53.477Z,2.83
2022-09-13T06:12:27.975Z,3.03
2022-09-13T06:15:03.036Z,2.92
2022-09-13T06:19:57.777Z,3.60
2022-09-13T06:22:32.958Z,2.90
2022-09-13T06:27:34.456Z,3.03
2022-09-13T06:30:01.805Z,3.53
2022-09-13T06:32:35.997Z,4.82
2022-09-13T06:35:03.417Z,4.60
2022-09-13T06:37:36.934Z,3.45
2022-09-13T06:40:11.975Z,3.42
2022-09-13T06:45:08.064Z,3.15
2022-09-13T06:47:43.228Z,2.25
2022-09-13T06:50:17.014Z,2.08
2022-09-13T06:52:51.405Z,2.63
2022-09-13T06:55:31.980Z,5.75
2022-09-13T06:57:59.996Z,5.82
2022-09-13T07:00:33.995Z,4.45
2022-09-13T07:03:01.811Z,5.28
2022-09-13T07:05:37.190Z,5.13
2022-09-13T07:08:04.556Z,3.90
2022-09-13T07:10:31.745Z,4.93
2022-09-13T07:13:06.045Z,2.45
2022-09-13T07:15:36.689Z,3.67
2022-09-13T07:18:10.052Z,3.60
2022-09-13T07:20:43.966Z,3.13
2022-09-13T07:23:15.161Z,3.17
2022-09-13T07:25:42.821Z,2.42
2022-09-13T07:28:16.921Z,3.17
2022-09-13T07:30:44.775Z,3.20
2022-09-13T07:33:13.344Z,2.90
2022-09-13T07:35:46.945Z,3.15
2022-09-13T07:38:20.885Z,3.38
2022-09-13T07:40:59.859Z,2.58
2022-09-13T07:43:36.145Z,3.25
2022-09-13T07:46:08.896Z,3.40
2022-09-13T07:48:46.014Z,3.08
2022-09-13T07:51:21.260Z,3.40
2022-09-13T07:54:08.161Z,3.55
2022-09-13T07:56:37.809Z,3.47
2022-09-13T07:59:14.989Z,3.75
2022-09-13T08:01:47.465Z,4.90
2022-09-13T08:04:28.009Z,3.22
2022-09-13T08:07:02.949Z,3.00
2022-09-13T08:09:30.390Z,1.80
2022-09-13T08:12:05.119Z,3.08
2022-09-13T08:14:32.386Z,2.72
2022-09-13T08:17:06.065Z,2.95
2022-09-13T08:19:33.269Z,2.50
2022-09-13T08:22:08.200Z,3.92
2022-09-13T08:27:10.165Z,3.33
2022-09-13T08:29:37.575Z,3.22
2022-09-13T08:32:12.029Z,4.60
2022-09-13T08:34:39.390Z,1.92
2022-09-13T08:37:12.964Z,3.45
2022-09-13T08:39:41.101Z,2.03
2022-09-13T08:42:34.012Z,3.00
2022-09-13T08:45:09.096Z,2.20
2022-09-13T08:47:54.956Z,2.50
2022-09-13T08:50:52.073Z,1.95
2022-09-13T08:53:39.095Z,1.50
2022-09-13T08:56:12.084Z,2.95
2022-09-13T08:58:54.007Z,2.63
2022-09-13T09:01:49.176Z,2.05
2022-09-13T09:04:48.787Z,2.60
2022-09-13T09:07:27.014Z,2.47
2022-09-13T09:10:05.525Z,2.00
2022-09-13T09:12:54.065Z,1.90
2022-09-13T09:15:32.934Z,2.83
2022-09-13T09:18:13.165Z,2.28
2022-09-13T09:20:55.005Z,2.08
2022-09-13T09:23:26.856Z,2.90
2022-09-13T09:26:06.064Z,3.05
2022-09-13T09:28:33.505Z,2.15
2022-09-13T09:31:45.766Z,2.95
2022-09-13T09:34:28.986Z,3.85
2022-09-13T09:37:30.124Z,3.92
2022-09-13T09:40:07.760Z,5.05
2022-09-13T09:42:49.034Z,3.97
2022-09-13T09:45:30.175Z,2.85
2022-09-13T09:48:09.153Z,2.45
2022-09-13T09:50:44.625Z,4.38
2022-09-13T09:54:01.264Z,2.67
2022-09-13T09:56:34.481Z,3.70
2022-09-13T09:59:11.086Z,2.53
2022-09-13T10:01:40.337Z,2.78
2022-09-13T10:04:19.214Z,3.08
2022-09-13T10:06:53.974Z,2.65
2022-09-13T10:09:23.474Z,3.65
2022-09-13T10:12:05.025Z,3.83
2022-09-13T10:14:35.325Z,2.65
2022-09-13T10:17:30.294Z,2.40
2022-09-13T10:20:20.484Z,2.33
2022-09-13T10:23:18.266Z,2.85
2022-09-13T10:25:58.144Z,2.60
2022-09-13T10:28:33.035Z,4.93
2022-09-13T10:31:05.519Z,2.50
2022-09-13T10:33:44.106Z,3.55
2022-09-13T10:36:53.509Z,3.25
2022-09-13T10:39:29.975Z,2.20
2022-09-13T10:42:13.143Z,2.78
2022-09-13T10:45:07.034Z,4.20
2022-09-13T10:47:48.575Z,2.72
2022-09-13T10:50:36.222Z,2.60
2022-09-13T10:53:45.065Z,3.28
2022-09-13T10:56:25.664Z,2.42
2022-09-13T10:59:22.170Z,1.77
2022-09-13T11:01:52.339Z,2.38
2022-09-13T11:04:38.214Z,2.03
2022-09-13T11:07:35.705Z,3.88
2022-09-13T11:10:20.063Z,1.98
2022-09-13T11:13:14.467Z,2.23
2022-09-13T11:15:57.056Z,1.85
2022-09-13T11:18:40.428Z,1.33
2022-09-13T11:21:26.144Z,1.70
2022-09-13T11:24:22.063Z,1.90
2022-09-13T11:27:19.033Z,1.92
2022-09-13T11:30:15.135Z,2.78
2022-09-13T11:33:33.243Z,2.10
2022-09-13T11:36:29.007Z,1.73
2022-09-13T11:38:59.504Z,1.23
2022-09-13T11:41:56.009Z,2.22
2022-09-13T11:44:32.184Z,1.55
2022-09-13T11:47:09.058Z,0.88
2022-09-13T11:50:13.533Z,1.65
2022-09-13T11:53:15.599Z,1.73
2022-09-13T11:56:06.139Z,1.67
2022-09-13T11:58:43.034Z,2.17
2022-09-13T12:01:23.434Z,1.23
2022-09-13T12:04:01.728Z,1.55
2022-09-13T12:06:42.156Z,0.73
2022-09-13T12:09:18.278Z,1.20
2022-09-13T12:12:18.329Z,1.30
2022-09-13T12:15:15.114Z,1.02
2022-09-13T12:18:00.110Z,0.95
2022-09-13T12:23:12.998Z,1.35
2022-09-13T12:26:12.518Z,1.33
2022-09-13T12:28:53.047Z,1.00
2022-09-13T12:31:35.225Z,1.13
2022-09-13T12:34:07.993Z,0.85
2022-09-13T12:36:59.128Z,1.33
2022-09-13T12:39:41.698Z,1.30
2022-09-13T12:42:43.043Z,1.20
2022-09-13T12:45:28.619Z,1.10
2022-09-13T12:48:11.108Z,0.80
2022-09-13T12:51:12.116Z,0.68
2022-09-13T12:54:16.442Z,0.80
2022-09-13T12:57:26.554Z,0.90
2022-09-13T13:00:25.583Z,1.20
2022-09-13T13:03:09.173Z,0.85
2022-09-13T13:06:35.154Z,0.65
2022-09-13T13:09:29.237Z,0.93
2022-09-13T13:11:59.944Z,0.80
2022-09-13T13:14:46.191Z,0.65
2022-09-13T13:17:41.123Z,0.65
2022-09-13T13:20:54.632Z,1.08
2022-09-13T13:23:35.462Z,1.02
2022-09-13T13:26:17.039Z,0.43
2022-09-13T13:28:47.962Z,0.65
2022-09-13T13:31:37.384Z,0.60
2022-09-13T13:34:11.481Z,0.75
2022-09-13T13:36:48.171Z,0.40
2022-09-13T13:39:27.627Z,0.93
2022-09-13T13:42:10.332Z,0.57
2022-09-13T13:44:51.221Z,0.40
2022-09-13T13:47:18.369Z,0.60
2022-09-13T13:50:22.420Z,0.82
2022-09-13T13:53:05.893Z,0.55
2022-09-13T13:55:56.330Z,0.50
2022-09-13T13:58:31.311Z,0.43
2022-09-13T14:01:09.299Z,0.70
2022-09-13T14:04:02.104Z,1.17
2022-09-13T14:06:38.045Z,0.55
2022-09-13T14:09:23.612Z,0.75
2022-09-13T14:12:07.558Z,0.40
2022-09-13T14:15:13.483Z,0.43
2022-09-13T14:20:17.805Z,0.55
2022-09-13T14:22:51.129Z,1.27
2022-09-13T14:25:23.469Z,0.68
2022-09-13T14:28:03.412Z,0.38
2022-09-13T14:30:38.794Z,0.57
2022-09-13T14:33:13.055Z,1.02
2022-09-13T14:35:41.824Z,0.60
2022-09-13T14:38:30.791Z,0.68
2022-09-13T14:41:19.852Z,0.95
2022-09-13T14:43:56.095Z,0.32
2022-09-13T14:46:35.158Z,1.05
2022-09-13T14:49:14.274Z,0.85
2022-09-13T14:52:19.354Z,0.50
2022-09-13T14:55:04.154Z,1.13
2022-09-13T14:57:35.244Z,0.45
2022-09-13T15:00:23.693Z,0.45
2022-09-13T15:02:56.729Z,0.60
2022-09-13T15:05:34.185Z,0.40
2022-09-13T15:08:25.306Z,0.55
2022-09-13T15:10:59.264Z,0.68
2022-09-13T15:13:33.117Z,0.63
2022-09-13T15:16:00.793Z,0.65
2022-09-13T15:18:40.246Z,1.08
2022-09-13T15:21:24.291Z,0.70
2022-09-13T15:23:58.482Z,0.30
2022-09-13T15:26:26.708Z,0.60
2022-09-13T15:29:06.307Z,0.70
2022-09-13T15:31:42.116Z,0.30
2022-09-13T15:34:22.646Z,0.60
2022-09-13T15:37:06.097Z,0.50
2022-09-13T15:40:23.744Z,0.52
2022-09-13T15:42:59.328Z,0.43
2022-09-13T15:45:33.108Z,0.40
2022-09-13T15:48:07.228Z,0.38
2022-09-13T15:50:35.787Z,0.57
2022-09-13T15:53:18.293Z,0.38
2022-09-13T15:55:58.365Z,0.30
2022-09-13T15:58:25.643Z,0.30
2022-09-13T16:00:59.286Z,0.63
2022-09-13T16:03:26.856Z,0.40
2022-09-13T16:06:01.068Z,0.50
2022-09-13T16:08:28.196Z,0.20
2022-09-13T16:11:02.206Z,0.40
2022-09-13T16:13:29.873Z,0.60
2022-09-13T16:16:04.269Z,0.30
2022-09-13T16:18:32.431Z,0.30
2022-09-13T16:21:06.167Z,0.57
2022-09-13T16:23:40.117Z,0.30
2022-09-13T16:26:13.073Z,0.30
2022-09-13T16:28:49.018Z,0.25
2022-09-13T16:31:23.373Z,0.40
2022-09-13T16:33:50.994Z,0.50
2022-09-13T16:36:19.028Z,0.70
2022-09-13T16:38:54.803Z,1.00
2022-09-13T16:41:29.408Z,1.10
2022-09-13T16:43:56.898Z,0.57
2022-09-13T16:46:31.222Z,0.82
2022-09-13T16:49:09.248Z,1.08
2022-09-13T16:51:44.059Z,0.70
2022-09-13T16:56:55.279Z,2.58
2022-09-13T16:59:29.464Z,2.25
2022-09-13T17:02:03.375Z,2.97
2022-09-13T17:04:37.170Z,3.25
2022-09-13T17:07:13.265Z,1.90
2022-09-13T17:09:41.107Z,2.47
2022-09-13T17:12:17.313Z,2.60
2022-09-13T17:14:54.108Z,2.10
2022-09-13T17:17:24.308Z,2.92
2022-09-13T17:19:52.959Z,2.80
2022-09-13T17:22:27.145Z,2.72
2022-09-13T17:25:01.294Z,3.10
2022-09-13T17:27:31.634Z,2.38
2022-09-13T17:30:06.438Z,2.80
2022-09-13T17:35:11.335Z,2.20
2022-09-13T17:37:39.082Z,1.17
2022-09-13T17:40:16.306Z,2.13
2022-09-13T17:42:43.902Z,2.08
2022-09-13T17:45:20.339Z,3.28
2022-09-13T17:47:54.302Z,2.08
2022-09-13T17:50:28.063Z,2.20
2022-09-13T17:53:19.559Z,2.00
2022-09-13T17:55:57.173Z,2.28
2022-09-13T17:58:27.538Z,2.15
2022-09-13T18:01:16.339Z,0.98
2022-09-13T18:03:45.680Z,1.83
2022-09-13T18:06:21.162Z,0.88
2022-09-13T18:08:55.879Z,1.13
2022-09-13T18:13:58.165Z,1.63
2022-09-13T18:16:28.508Z,0.93
2022-09-13T18:19:03.666Z,1.17
2022-09-13T18:21:37.196Z,1.40
2022-09-13T18:24:12.228Z,1.17
2022-09-13T18:26:46.221Z,0.80
2022-09-13T18:29:21.278Z,0.80
2022-09-13T18:31:48.823Z,0.93
2022-09-13T18:34:16.193Z,1.65
2022-09-13T18:36:50.414Z,1.05
2022-09-13T18:39:20.459Z,1.00
2022-09-13T18:41:55.373Z,1.02
2022-09-13T18:46:57.328Z,0.68
2022-09-13T18:49:25.032Z,1.00
2022-09-13T18:51:59.238Z,0.50
2022-09-13T18:54:39.263Z,1.92
2022-09-13T18:57:21.114Z,2.22
2022-09-13T18:59:55.162Z,1.38
2022-09-13T19:02:29.165Z,1.10
2022-09-13T19:04:56.513Z,0.70
2022-09-13T19:07:30.392Z,1.50
2022-09-13T19:10:05.253Z,0.73
2022-09-13T19:12:32.949Z,0.88
2022-09-13T19:15:07.263Z,1.15
2022-09-13T19:17:42.253Z,1.60
2022-09-13T19:20:16.302Z,2.10
2022-09-13T19:22:52.249Z,2.40
2022-09-13T19:25:19.792Z,1.35
2022-09-13T19:27:53.228Z,1.63
2022-09-13T19:30:20.543Z,0.82
2022-09-13T19:32:48.144Z,1.05
2022-09-13T19:35:25.220Z,1.17
2022-09-13T19:37:52.571Z,0.80
2022-09-13T19:40:26.382Z,1.15
2022-09-13T19:42:54.393Z,0.70
2022-09-13T19:45:30.292Z,0.73
2022-09-13T19:48:37.723Z,1.55
2022-09-13T19:50:51.108Z,1.10
2022-09-13T19:53:40.886Z,1.98
2022-09-13T19:56:24.271Z,0.95
2022-09-13T19:58:59.614Z,0.98
2022-09-13T20:01:33.903Z,1.42
2022-09-13T20:04:10.147Z,0.73
2022-09-13T20:06:40.143Z,0.98
2022-09-13T20:09:16.215Z,1.45
2022-09-13T20:11:47.793Z,1.27
2022-09-13T20:14:24.591Z,0.70
2022-09-13T20:16:53.303Z,1.20
2022-09-13T20:19:40.923Z,0.50
2022-09-13T20:22:11.033Z,0.70
2022-09-13T20:24:45.419Z,1.55
2022-09-13T20:27:20.353Z,0.98
2022-09-13T20:32:21.378Z,1.05
2022-09-13T20:34:50.589Z,3.67
2022-09-13T20:37:25.298Z,0.85
2022-09-13T20:39:54.231Z,0.77
2022-09-13T20:42:28.358Z,0.88
2022-09-13T20:45:09.714Z,1.60
2022-09-13T20:47:38.423Z,0.75
2022-09-13T20:50:13.387Z,0.70
2022-09-13T20:52:47.515Z,2.10
2022-09-13T20:55:28.371Z,1.02
2022-09-13T20:58:05.570Z,0.50
2022-09-13T21:00:40.437Z,1.63
2022-09-13T21:05:43.912Z,1.43
2022-09-13T21:08:42.322Z,1.52
2022-09-13T21:11:22.229Z,1.52
2022-09-13T21:13:53.923Z,1.10
2022-09-13T21:16:33.383Z,1.30
2022-09-13T21:19:04.053Z,1.55
2022-09-13T21:21:40.257Z,1.13
2022-09-13T21:24:11.263Z,1.42
2022-09-13T21:26:49.504Z,1.48
2022-09-13T21:29:17.003Z,1.80
2022-09-13T21:31:51.323Z,0.82
2022-09-13T21:34:20.189Z,1.40
2022-09-13T21:36:48.448Z,1.23
2022-09-13T21:39:23.279Z,1.65
2022-09-13T21:41:50.739Z,1.60
2022-09-13T21:44:25.092Z,1.10
2022-09-13T21:46:52.442Z,1.70
2022-09-13T21:49:29.362Z,2.25
2022-09-13T21:51:56.993Z,1.48
2022-09-13T21:54:37.212Z,1.67
2022-09-13T21:57:17.242Z,1.20
2022-09-13T21:59:51.756Z,1.40
2022-09-13T22:02:26.544Z,1.70
2022-09-13T22:05:00.532Z,1.27
2022-09-13T22:07:30.766Z,1.40
2022-09-13T22:10:04.280Z,1.70
2022-09-13T22:12:31.670Z,1.55
2022-09-13T22:14:58.865Z,1.45
2022-09-13T22:17:33.330Z,1.48
2022-09-13T22:20:07.481Z,1.65
2022-09-13T22:22:41.272Z,1.47
2022-09-13T22:25:15.262Z,1.85
2022-09-13T22:27:43.135Z,1.70
2022-09-13T22:30:11.521Z,1.77
2022-09-13T22:32:45.191Z,3.35
2022-09-13T22:35:19.247Z,2.03
2022-09-13T22:37:53.544Z,2.50
2022-09-13T22:40:24.746Z,1.17
2022-09-13T22:42:58.183Z,1.75
2022-09-13T22:45:32.388Z,2.03
2022-09-13T22:48:00.141Z,2.33
2022-09-13T22:50:27.663Z,1.65
2022-09-13T22:53:01.410Z,1.48
2022-09-13T22:55:35.439Z,1.02
2022-09-13T22:58:09.199Z,2.67
2022-09-13T23:00:36.510Z,2.83
2022-09-13T23:03:10.318Z,2.08
2022-09-13T23:05:38.546Z,2.13
2022-09-13T23:08:13.359Z,2.17
2022-09-13T23:10:40.714Z,2.20
2022-09-13T23:13:14.258Z,2.67
2022-09-13T23:15:41.729Z,2.53
2022-09-13T23:18:17.271Z,1.67
2022-09-13T23:20:55.440Z,2.80
2022-09-13T23:23:29.644Z,2.28
2022-09-13T23:26:10.529Z,3.03
2022-09-13T23:28:46.271Z,3.08
2022-09-13T23:31:28.335Z,1.92
2022-09-13T23:33:58.883Z,2.00
2022-09-13T23:36:36.274Z,2.42
2022-09-13T23:39:05.694Z,3.38
2022-09-13T23:41:34.419Z,2.95
2022-09-13T23:44:09.219Z,2.72
2022-09-13T23:46:36.795Z,3.13
2022-09-13T23:49:11.333Z,3.17
2022-09-13T23:51:38.763Z,2.58
2022-09-13T23:54:20.358Z,2.65
2022-09-13T23:56:55.643Z,4.00
2022-09-13T23:59:29.416Z,2.28
